IWY714 TBPB-TLPC
Flight info
| Callsign | IWY714 |
|---|---|
| Flight time | 0h 32m |
| Altitude | 12000 |
| Route | TEDDY DCT |
| Aircraft | AT76/M-SDFGHIRWY/LB1 |
Departure
| Time | 2026-05-07 20:06 |
|---|---|
| Airport | Grantley Adams International Airport (TBPB) |
Arrival
| Time | 2026-05-07 20:38 |
|---|---|
| Airport | George F. L. Charles Airport (TLPC) |
| Time | Latitude | Longitude | Altitude | Speed | Heading |
|---|---|---|---|---|---|
| 2026-05-07 19:59 | 13.07785 | -59.48926 | 174 ft | 0 kts | 347° |
| 2026-05-07 20:01 | 13.07791 | -59.48927 | 174 ft | 5 kts | 348° |
| 2026-05-07 20:01 | 13.07799 | -59.48920 | 174 ft | 1 kts | 80° |
| 2026-05-07 20:01 | 13.07784 | -59.48915 | 174 ft | 5 kts | 165° |
| 2026-05-07 20:01 | 13.07738 | -59.48903 | 174 ft | 10 kts | 165° |
| 2026-05-07 20:02 | 13.07691 | -59.48952 | 174 ft | 13 kts | 257° |
| 2026-05-07 20:02 | 13.07668 | -59.49051 | 174 ft | 15 kts | 256° |
| 2026-05-07 20:02 | 13.07640 | -59.49164 | 174 ft | 17 kts | 255° |
| 2026-05-07 20:02 | 13.07610 | -59.49287 | 174 ft | 18 kts | 257° |
| 2026-05-07 20:03 | 13.07579 | -59.49417 | 174 ft | 19 kts | 256° |
| 2026-05-07 20:03 | 13.07546 | -59.49551 | 174 ft | 19 kts | 256° |
| 2026-05-07 20:03 | 13.07514 | -59.49681 | 174 ft | 18 kts | 256° |
| 2026-05-07 20:03 | 13.07487 | -59.49807 | 174 ft | 18 kts | 259° |
| 2026-05-07 20:04 | 13.07457 | -59.49932 | 174 ft | 18 kts | 255° |
| 2026-05-07 20:04 | 13.07426 | -59.50053 | 174 ft | 17 kts | 255° |
| 2026-05-07 20:04 | 13.07398 | -59.50168 | 174 ft | 13 kts | 256° |
| 2026-05-07 20:04 | 13.07336 | -59.50196 | 174 ft | 10 kts | 166° |
| 2026-05-07 20:05 | 13.07269 | -59.50179 | 175 ft | 9 kts | 166° |
| 2026-05-07 20:05 | 13.07235 | -59.50140 | 175 ft | 10 kts | 84° |
| 2026-05-07 20:05 | 13.07309 | -59.49840 | 174 ft | 78 kts | 77° |
| 2026-05-07 20:05 | 13.07494 | -59.49123 | 317 ft | 116 kts | 77° |
| 2026-05-07 20:06 | 13.07702 | -59.48315 | 879 ft | 119 kts | 77° |
| 2026-05-07 20:06 | 13.07906 | -59.47448 | 1356 ft | 134 kts | 79° |
| 2026-05-07 20:06 | 13.08237 | -59.46527 | 1914 ft | 145 kts | 58° |
| 2026-05-07 20:06 | 13.09162 | -59.46107 | 2464 ft | 160 kts | 359° |
| 2026-05-07 20:07 | 13.10134 | -59.46702 | 2978 ft | 176 kts | 308° |
| 2026-05-07 20:07 | 13.10435 | -59.47951 | 3402 ft | 187 kts | 274° |
| 2026-05-07 20:07 | 13.10475 | -59.48845 | 3688 ft | 191 kts | 275° |
| 2026-05-07 20:07 | 13.10646 | -59.50692 | 4330 ft | 196 kts | 280° |
| 2026-05-07 20:08 | 13.10883 | -59.52046 | 4924 ft | 195 kts | 283° |
| 2026-05-07 20:08 | 13.11195 | -59.53405 | 5512 ft | 196 kts | 288° |
| 2026-05-07 20:08 | 13.11644 | -59.54713 | 6044 ft | 193 kts | 294° |
| 2026-05-07 20:08 | 13.12213 | -59.55953 | 6550 ft | 191 kts | 300° |
| 2026-05-07 20:09 | 13.12651 | -59.56761 | 6766 ft | 192 kts | 302° |
| 2026-05-07 20:09 | 13.13361 | -59.57922 | 7103 ft | 192 kts | 304° |
| 2026-05-07 20:09 | 13.14104 | -59.59069 | 7437 ft | 193 kts | 305° |
| 2026-05-07 20:10 | 13.15590 | -59.61381 | 8097 ft | 195 kts | 304° |
| 2026-05-07 20:10 | 13.16328 | -59.62553 | 8419 ft | 196 kts | 304° |
| 2026-05-07 20:10 | 13.17063 | -59.63734 | 8721 ft | 197 kts | 304° |
| 2026-05-07 20:10 | 13.17805 | -59.64915 | 9009 ft | 197 kts | 304° |
| 2026-05-07 20:11 | 13.18553 | -59.66097 | 9298 ft | 198 kts | 304° |
| 2026-05-07 20:11 | 13.19299 | -59.67292 | 9591 ft | 199 kts | 304° |
| 2026-05-07 20:11 | 13.20042 | -59.68492 | 9882 ft | 200 kts | 303° |
| 2026-05-07 20:11 | 13.20787 | -59.69696 | 10170 ft | 200 kts | 304° |
| 2026-05-07 20:12 | 13.21536 | -59.70902 | 10438 ft | 201 kts | 304° |
| 2026-05-07 20:12 | 13.22289 | -59.72114 | 10695 ft | 202 kts | 304° |
| 2026-05-07 20:12 | 13.23036 | -59.73313 | 10954 ft | 202 kts | 304° |
| 2026-05-07 20:12 | 13.23795 | -59.74534 | 11216 ft | 203 kts | 304° |
| 2026-05-07 20:13 | 13.24553 | -59.75759 | 11459 ft | 204 kts | 304° |
| 2026-05-07 20:13 | 13.25314 | -59.76992 | 11725 ft | 205 kts | 304° |
| 2026-05-07 20:13 | 13.26086 | -59.78236 | 11894 ft | 211 kts | 304° |
| 2026-05-07 20:13 | 13.26891 | -59.79531 | 11947 ft | 220 kts | 304° |
| 2026-05-07 20:14 | 13.27729 | -59.80878 | 11966 ft | 229 kts | 304° |
| 2026-05-07 20:14 | 13.28597 | -59.82277 | 11980 ft | 236 kts | 304° |
| 2026-05-07 20:14 | 13.29487 | -59.83713 | 11981 ft | 241 kts | 304° |
| 2026-05-07 20:14 | 13.30399 | -59.85181 | 11991 ft | 246 kts | 304° |
| 2026-05-07 20:15 | 13.31319 | -59.86669 | 11988 ft | 248 kts | 304° |
| 2026-05-07 20:15 | 13.32246 | -59.88165 | 11981 ft | 249 kts | 304° |
| 2026-05-07 20:15 | 13.33178 | -59.89669 | 11987 ft | 250 kts | 304° |
| 2026-05-07 20:15 | 13.34113 | -59.91178 | 11989 ft | 251 kts | 304° |
| 2026-05-07 20:16 | 13.35047 | -59.92688 | 11989 ft | 251 kts | 304° |
| 2026-05-07 20:16 | 13.35982 | -59.94200 | 11986 ft | 251 kts | 304° |
| 2026-05-07 20:16 | 13.36919 | -59.95711 | 11984 ft | 251 kts | 304° |
| 2026-05-07 20:16 | 13.37859 | -59.97227 | 11987 ft | 251 kts | 304° |
| 2026-05-07 20:17 | 13.38793 | -59.98742 | 11987 ft | 251 kts | 304° |
| 2026-05-07 20:17 | 13.39729 | -60.00255 | 11993 ft | 251 kts | 304° |
| 2026-05-07 20:17 | 13.40655 | -60.01749 | 11983 ft | 251 kts | 304° |
| 2026-05-07 20:17 | 13.41591 | -60.03265 | 11994 ft | 251 kts | 304° |
| 2026-05-07 20:18 | 13.42529 | -60.04778 | 11993 ft | 252 kts | 304° |
| 2026-05-07 20:18 | 13.43466 | -60.06296 | 11992 ft | 252 kts | 304° |
| 2026-05-07 20:18 | 13.44404 | -60.07814 | 11988 ft | 252 kts | 304° |
| 2026-05-07 20:18 | 13.45345 | -60.09333 | 11990 ft | 252 kts | 304° |
| 2026-05-07 20:19 | 13.46283 | -60.10852 | 11990 ft | 252 kts | 304° |
| 2026-05-07 20:19 | 13.47222 | -60.12373 | 11989 ft | 252 kts | 304° |
| 2026-05-07 20:19 | 13.48161 | -60.13893 | 11992 ft | 252 kts | 304° |
| 2026-05-07 20:19 | 13.49101 | -60.15413 | 11995 ft | 252 kts | 304° |
| 2026-05-07 20:20 | 13.50039 | -60.16937 | 11986 ft | 252 kts | 304° |
| 2026-05-07 20:20 | 13.50663 | -60.17947 | 11983 ft | 252 kts | 304° |
| 2026-05-07 20:20 | 13.52898 | -60.21562 | 11989 ft | 252 kts | 304° |
| 2026-05-07 20:21 | 13.53847 | -60.23099 | 11984 ft | 251 kts | 304° |
| 2026-05-07 20:21 | 13.54771 | -60.24596 | 11995 ft | 252 kts | 304° |
| 2026-05-07 20:21 | 13.55709 | -60.26115 | 11992 ft | 252 kts | 304° |
| 2026-05-07 20:21 | 13.56646 | -60.27638 | 11983 ft | 252 kts | 304° |
| 2026-05-07 20:22 | 13.57584 | -60.29161 | 11984 ft | 251 kts | 304° |
| 2026-05-07 20:22 | 13.58524 | -60.30681 | 11993 ft | 252 kts | 304° |
| 2026-05-07 20:22 | 13.59454 | -60.32211 | 11996 ft | 253 kts | 303° |
| 2026-05-07 20:22 | 13.60378 | -60.33745 | 12004 ft | 252 kts | 303° |
| 2026-05-07 20:23 | 13.61303 | -60.35278 | 11994 ft | 253 kts | 304° |
| 2026-05-07 20:23 | 13.62240 | -60.36815 | 11976 ft | 253 kts | 304° |
| 2026-05-07 20:23 | 13.63178 | -60.38345 | 11980 ft | 253 kts | 304° |
| 2026-05-07 20:23 | 13.64120 | -60.39873 | 11989 ft | 252 kts | 304° |
| 2026-05-07 20:24 | 13.65056 | -60.41396 | 11991 ft | 252 kts | 304° |
| 2026-05-07 20:24 | 13.65994 | -60.42917 | 11983 ft | 252 kts | 304° |
| 2026-05-07 20:24 | 13.66930 | -60.44440 | 11995 ft | 252 kts | 304° |
| 2026-05-07 20:24 | 13.67872 | -60.45967 | 11923 ft | 255 kts | 304° |
| 2026-05-07 20:25 | 13.68839 | -60.47536 | 11664 ft | 263 kts | 304° |
| 2026-05-07 20:25 | 13.69816 | -60.49124 | 11418 ft | 269 kts | 303° |
| 2026-05-07 20:25 | 13.70824 | -60.50763 | 11169 ft | 273 kts | 303° |
| 2026-05-07 20:25 | 13.71843 | -60.52424 | 10911 ft | 276 kts | 303° |
| 2026-05-07 20:26 | 13.72871 | -60.54101 | 10668 ft | 278 kts | 303° |
| 2026-05-07 20:26 | 13.73916 | -60.55773 | 10413 ft | 279 kts | 304° |
| 2026-05-07 20:26 | 13.74984 | -60.57440 | 10191 ft | 278 kts | 304° |
| 2026-05-07 20:26 | 13.76045 | -60.59086 | 10086 ft | 274 kts | 304° |
| 2026-05-07 20:27 | 13.77088 | -60.60708 | 10034 ft | 270 kts | 304° |
| 2026-05-07 20:27 | 13.78116 | -60.62302 | 10013 ft | 265 kts | 304° |
| 2026-05-07 20:27 | 13.79126 | -60.63870 | 9998 ft | 261 kts | 304° |
| 2026-05-07 20:27 | 13.80128 | -60.65421 | 9994 ft | 259 kts | 304° |
| 2026-05-07 20:28 | 13.81121 | -60.66960 | 9991 ft | 257 kts | 304° |
| 2026-05-07 20:28 | 13.82104 | -60.68488 | 9990 ft | 255 kts | 304° |
| 2026-05-07 20:28 | 13.83087 | -60.70009 | 9991 ft | 255 kts | 304° |
| 2026-05-07 20:28 | 13.84063 | -60.71523 | 9990 ft | 254 kts | 304° |
| 2026-05-07 20:29 | 13.85037 | -60.73035 | 9989 ft | 253 kts | 304° |
| 2026-05-07 20:29 | 13.85993 | -60.74513 | 9869 ft | 242 kts | 305° |
| 2026-05-07 20:29 | 13.86944 | -60.75961 | 9345 ft | 246 kts | 305° |
| 2026-05-07 20:29 | 13.87911 | -60.77421 | 8847 ft | 248 kts | 305° |
| 2026-05-07 20:30 | 13.88886 | -60.78886 | 8346 ft | 249 kts | 305° |
| 2026-05-07 20:30 | 13.89857 | -60.80362 | 7840 ft | 249 kts | 305° |
| 2026-05-07 20:30 | 13.90820 | -60.81840 | 7347 ft | 249 kts | 305° |
| 2026-05-07 20:30 | 13.91783 | -60.83326 | 6846 ft | 249 kts | 305° |
| 2026-05-07 20:31 | 13.92725 | -60.84790 | 6350 ft | 248 kts | 305° |
| 2026-05-07 20:31 | 13.93677 | -60.86264 | 5851 ft | 248 kts | 305° |
| 2026-05-07 20:31 | 13.94630 | -60.87741 | 5353 ft | 248 kts | 304° |
| 2026-05-07 20:31 | 13.95593 | -60.89240 | 4852 ft | 247 kts | 305° |
| 2026-05-07 20:32 | 13.96534 | -60.90703 | 4494 ft | 241 kts | 306° |
| 2026-05-07 20:32 | 13.97424 | -60.92094 | 4313 ft | 229 kts | 305° |
| 2026-05-07 20:32 | 13.98254 | -60.93445 | 4254 ft | 216 kts | 304° |
| 2026-05-07 20:32 | 13.98933 | -60.94764 | 4212 ft | 204 kts | 286° |
| 2026-05-07 20:33 | 13.98811 | -60.96177 | 4058 ft | 201 kts | 251° |
| 2026-05-07 20:33 | 13.98306 | -60.97583 | 3538 ft | 217 kts | 250° |
| 2026-05-07 20:33 | 13.97739 | -60.99066 | 3081 ft | 228 kts | 249° |
| 2026-05-07 20:33 | 13.97131 | -61.00601 | 2573 ft | 235 kts | 248° |
| 2026-05-07 20:34 | 13.96512 | -61.02153 | 2205 ft | 232 kts | 248° |
| 2026-05-07 20:34 | 13.95905 | -61.03652 | 2094 ft | 221 kts | 248° |
| 2026-05-07 20:34 | 13.95323 | -61.05073 | 2038 ft | 210 kts | 247° |
| 2026-05-07 20:34 | 13.94819 | -61.06432 | 2000 ft | 194 kts | 260° |
| 2026-05-07 20:35 | 13.95050 | -61.07707 | 2003 ft | 178 kts | 307° |
| 2026-05-07 20:35 | 13.96040 | -61.08356 | 1994 ft | 169 kts | 355° |
| 2026-05-07 20:35 | 13.97106 | -61.08025 | 1995 ft | 162 kts | 41° |
| 2026-05-07 20:35 | 13.97941 | -61.07261 | 1997 ft | 158 kts | 41° |
| 2026-05-07 20:36 | 13.98762 | -61.06568 | 1923 ft | 149 kts | 41° |
| 2026-05-07 20:36 | 13.99483 | -61.05843 | 1688 ft | 144 kts | 51° |
| 2026-05-07 20:36 | 14.00064 | -61.05023 | 1544 ft | 128 kts | 57° |
| 2026-05-07 20:36 | 14.00419 | -61.04252 | 1379 ft | 117 kts | 70° |
| 2026-05-07 20:37 | 14.00740 | -61.03468 | 1035 ft | 121 kts | 65° |
| 2026-05-07 20:37 | 14.01080 | -61.02689 | 810 ft | 113 kts | 65° |
| 2026-05-07 20:37 | 14.01318 | -61.01928 | 492 ft | 116 kts | 75° |
| 2026-05-07 20:37 | 14.01517 | -61.01147 | 293 ft | 111 kts | 73° |
| 2026-05-07 20:38 | 14.01714 | -61.00393 | 116 ft | 108 kts | 75° |
| 2026-05-07 20:38 | 14.01903 | -60.99677 | 28 ft | 93 kts | 75° |
| 2026-05-07 20:38 | 14.01982 | -60.99369 | 24 ft | 16 kts | 73° |
| 2026-05-07 20:38 | 14.02006 | -60.99305 | 21 ft | 1 kts | 133° |
| 2026-05-07 20:39 | 14.01994 | -60.99323 | 21 ft | 7 kts | 257° |
| 2026-05-07 20:39 | 14.01980 | -60.99386 | 22 ft | 10 kts | 256° |
| 2026-05-07 20:39 | 14.01976 | -60.99454 | 23 ft | 10 kts | 284° |
| 2026-05-07 20:39 | 14.01992 | -60.99504 | 24 ft | 7 kts | 289° |
| 2026-05-07 20:40 | 14.02000 | -60.99528 | 26 ft | 5 kts | 286° |
| 2026-05-07 20:40 | 14.02000 | -60.99560 | 26 ft | 3 kts | 265° |
| 2026-05-07 20:40 | 14.02014 | -60.99574 | 24 ft | 3 kts | 354° |
| 2026-05-07 20:40 | 14.02032 | -60.99568 | 27 ft | 2 kts | 58° |
| 2026-05-07 20:41 | 14.02027 | -60.99559 | 24 ft | 4 kts | 142° |
| 2026-05-07 20:41 | 14.02024 | -60.99558 | 24 ft | 0 kts | 154° |